Time;durP1;ratioP1;P1;durP2;ratioP2;P2;SDS_P1;SDS_P2;PMS_P1;PMS_P2;Temp;Humidity;BMP_temperature;BMP_pressure;BME280_temperature;BME280_humidity;BME280_pressure;Samples;Min_cycle;Max_cycle;Signal;HPM_P1;HPM_P2
2021/10/04 00:02:01;;;;;;;;;;;;;;;9.05;91.38;98137.05;1781995;79;20222;-84
2021/10/04 00:04:30;;;;;;;;;;;;;;;9.02;92.32;98121.38;1781944;80;21941;-81
2021/10/04 00:06:56;;;;;;;;;;;;;;;9.04;92.54;98140.83;1782309;79;20171;-82
2021/10/04 00:09:23;;;;;;;;;;;;;;;9.05;91.13;98139.75;1782391;80;20203;-84
2021/10/04 00:11:49;;;;;;;;;;;;;;;9.01;92.21;98145.97;1782207;80;20428;-83
2021/10/04 00:14:15;;;;;;;;;;;;;;;8.94;92.40;98135.95;1753125;80;20416;-82
2021/10/04 00:16:41;;;;;;;;;;;;;;;8.95;92.65;98122.70;1785656;80;21132;-83
2021/10/04 00:19:07;;;;;;;;;;;;;;;8.97;93.75;98137.59;1785212;79;20214;-82
2021/10/04 00:21:32;;;;;;;;;;;;;;;9.07;91.99;98122.48;1785229;80;20258;-83
2021/10/04 00:23:58;;;;;;;;;;;;;;;9.15;91.83;98129.52;1785150;79;20230;-84
2021/10/04 00:26:24;;;;;;;;;;;;;;;9.20;93.14;98128.70;1785305;80;20155;-81
2021/10/04 00:28:50;;;;;;;;;;;;;;;9.21;93.47;98131.13;1757588;80;21089;-83
2021/10/04 00:31:15;;;;;;;;;;;;;;;9.26;91.95;98120.34;1785379;80;20182;-81
2021/10/04 00:33:41;;;;;;;;;;;;;;;9.27;92.65;98121.95;1785157;79;20178;-82
2021/10/04 00:36:07;;;;;;;;;;;;;;;9.28;91.94;98122.23;1785346;80;20147;-83
2021/10/04 00:38:33;;;;;;;;;;;;;;;9.28;91.59;98126.83;1785439;79;20171;-82
2021/10/04 00:40:59;;;;;;;;;;;;;;;9.31;90.99;98116.30;1785562;80;21109;-82
2021/10/04 00:43:24;;;;;;;;;;;;;;;9.28;92.74;98118.17;1785219;79;20758;-83
2021/10/04 00:45:50;;;;;;;;;;;;;;;9.24;92.77;98108.18;1785378;80;20187;-83
2021/10/04 00:48:16;;;;;;;;;;;;;;;9.26;91.94;98104.66;1785305;79;20190;-82
2021/10/04 00:50:43;;;;;;;;;;;;;;;9.28;92.68;98100.59;1785956;80;20178;-84
2021/10/04 00:53:10;;;;;;;;;;;;;;;9.35;91.42;98102.23;1785766;79;21045;-83
2021/10/04 00:55:37;;;;;;;;;;;;;;;9.39;92.26;98103.30;1785414;80;20436;-82
2021/10/04 00:58:04;;;;;;;;;;;;;;;9.35;91.72;98094.13;1785348;79;20140;-81
2021/10/04 01:00:29;;;;;;;;;;;;;;;9.36;91.02;98085.73;1785405;80;20224;-82
2021/10/04 01:02:55;;;;;;;;;;;;;;;9.38;90.79;98099.79;1785390;79;20171;-81
2021/10/04 01:05:21;;;;;;;;;;;;;;;9.34;91.70;98082.49;1785404;80;21113;-82
2021/10/04 01:07:47;;;;;;;;;;;;;;;9.34;91.20;98090.61;1785351;79;20404;-82
2021/10/04 01:10:12;;;;;;;;;;;;;;;9.36;91.19;98093.84;1785363;80;20230;-84
2021/10/04 01:12:41;;;;;;;;;;;;;;;9.35;91.26;98094.13;1758654;80;20178;-83
2021/10/04 01:15:07;;;;;;;;;;;;;;;9.28;91.48;98085.72;1782923;80;20407;-82
2021/10/04 01:17:33;;;;;;;;;;;;;;;9.27;90.74;98089.52;1783110;79;21164;-82
2021/10/04 01:20:09;;;;;;;;;;;;;;;9.23;91.09;98096.55;1756008;80;20191;-83
2021/10/04 01:22:34;;;;;;;;;;;;;;;9.19;90.73;98095.45;1750699;79;20282;-83
2021/10/04 01:25:00;;;;;;;;;;;;;;;9.17;90.64;98106.27;1782475;80;20139;-82
2021/10/04 01:27:26;;;;;;;;;;;;;;;9.17;91.65;98100.87;1783153;79;20147;-83
2021/10/04 01:29:52;;;;;;;;;;;;;;;9.22;90.76;98105.72;1783134;80;21095;-84
2021/10/04 01:32:18;;;;;;;;;;;;;;;9.24;92.42;98091.41;1782521;79;20258;-84
2021/10/04 01:34:43;;;;;;;;;;;;;;;9.33;91.34;98102.51;1782655;80;20265;-84
2021/10/04 01:37:09;;;;;;;;;;;;;;;9.40;92.01;98099.52;1782625;80;20162;-84
2021/10/04 01:39:35;;;;;;;;;;;;;;;9.41;91.37;98098.45;1782219;79;20238;-83
2021/10/04 01:42:01;;;;;;;;;;;;;;;9.43;91.54;98101.16;1782556;80;21082;-82
2021/10/04 01:44:27;;;;;;;;;;;;;;;9.43;91.67;98101.70;1782290;79;20171;-82
2021/10/04 01:46:52;;;;;;;;;;;;;;;9.44;91.89;98106.02;1782717;80;20242;-82
2021/10/04 01:49:18;;;;;;;;;;;;;;;9.42;91.80;98091.42;1782498;79;20144;-81
2021/10/04 01:51:44;;;;;;;;;;;;;;;9.45;91.37;98094.12;1782680;80;20269;-82
2021/10/04 01:54:10;;;;;;;;;;;;;;;9.43;91.27;98095.75;1782267;79;21797;-83
2021/10/04 01:56:36;;;;;;;;;;;;;;;9.37;91.21;98091.41;1782448;80;20194;-82
2021/10/04 01:59:01;;;;;;;;;;;;;;;9.40;90.58;98094.11;1782547;79;20218;-81
2021/10/04 02:01:27;;;;;;;;;;;;;;;9.38;91.36;98101.14;1782253;80;20151;-82
2021/10/04 02:03:54;;;;;;;;;;;;;;;9.38;91.02;98087.62;1782628;79;20234;-83
2021/10/04 02:06:20;;;;;;;;;;;;;;;9.34;91.43;98097.37;1782333;80;21195;-83
2021/10/04 02:08:46;;;;;;;;;;;;;;;9.34;90.64;98098.72;1782347;79;20215;-82
2021/10/04 02:11:12;;;;;;;;;;;;;;;9.28;91.21;98097.08;1782367;80;20682;-82
2021/10/04 02:13:37;;;;;;;;;;;;;;;9.30;90.79;98103.84;1782429;79;20136;-83
2021/10/04 02:16:04;;;;;;;;;;;;;;;9.31;90.78;98102.78;1782253;80;20230;-83
2021/10/04 02:18:30;;;;;;;;;;;;;;;9.25;92.05;98097.63;1781934;79;21216;-83
2021/10/04 02:20:56;;;;;;;;;;;;;;;9.21;92.45;98104.09;1753604;80;20137;-83
2021/10/04 02:23:22;;;;;;;;;;;;;;;9.16;92.85;98100.59;1781935;79;20222;-82
2021/10/04 02:25:48;;;;;;;;;;;;;;;9.14;92.00;98099.48;1752168;80;20150;-82
2021/10/04 02:28:15;;;;;;;;;;;;;;;9.15;92.74;98096.27;1752481;80;20140;-82
2021/10/04 02:30:41;;;;;;;;;;;;;;;9.17;92.54;98100.32;1781895;80;21063;-82
2021/10/04 02:33:07;;;;;;;;;;;;;;;9.26;93.86;98090.59;1782130;79;20175;-82
2021/10/04 02:35:32;;;;;;;;;;;;;;;9.38;92.83;98099.79;1782260;80;20175;-82
2021/10/04 02:37:58;;;;;;;;;;;;;;;9.44;92.35;98099.27;1753739;79;20162;-82
2021/10/04 02:40:24;;;;;;;;;;;;;;;9.42;92.30;98095.48;1781960;80;20238;-81
2021/10/04 02:42:50;;;;;;;;;;;;;;;9.48;91.69;98103.84;1781947;79;21071;-84
2021/10/04 02:45:16;;;;;;;;;;;;;;;9.56;91.84;98091.12;1753364;80;20206;-82
2021/10/04 02:47:42;;;;;;;;;;;;;;;9.58;91.70;98094.94;1781902;79;20184;-82
2021/10/04 02:50:09;;;;;;;;;;;;;;;9.56;91.80;98093.02;1782352;80;20133;-81
2021/10/04 02:52:35;;;;;;;;;;;;;;;9.58;91.60;98098.45;1782012;80;20081;-83
2021/10/04 02:55:01;;;;;;;;;;;;;;;9.57;91.72;98094.64;1781921;79;21031;-83
2021/10/04 02:57:27;;;;;;;;;;;;;;;9.52;91.85;98096.02;1782181;80;20190;-82
2021/10/04 02:59:52;;;;;;;;;;;;;;;9.53;91.10;98099.80;1781723;79;20178;-82
2021/10/04 03:02:18;;;;;;;;;;;;;;;9.52;91.89;98090.61;1782032;80;20397;-83
2021/10/04 03:04:44;;;;;;;;;;;;;;;9.47;91.91;98102.22;1781776;79;20139;-82
2021/10/04 03:07:10;;;;;;;;;;;;;;;9.48;92.08;98105.73;1782075;80;21089;-83
2021/10/04 03:09:35;;;;;;;;;;;;;;;9.52;91.42;98100.88;1781701;79;20159;-82
2021/10/04 03:12:01;;;;;;;;;;;;;;;9.65;91.33;98098.16;1782142;80;20190;-82
2021/10/04 03:14:27;;;;;;;;;;;;;;;9.72;90.83;98097.89;1781693;79;20135;-83
2021/10/04 03:16:53;;;;;;;;;;;;;;;9.81;90.60;98086.78;1784581;80;20235;-82
2021/10/04 03:19:19;;;;;;;;;;;;;;;10.03;90.61;98084.59;1785372;79;21105;-83
2021/10/04 03:21:45;;;;;;;;;;;;;;;10.22;90.14;98097.53;1785706;80;20207;-83
2021/10/04 03:24:13;;;;;;;;;;;;;;;10.33;89.75;98095.09;1785242;79;20175;-83
2021/10/04 03:26:38;;;;;;;;;;;;;;;10.40;89.19;98093.71;1757830;80;20431;-83
2021/10/04 03:29:04;;;;;;;;;;;;;;;10.45;89.25;98096.95;1785253;79;20668;-82
2021/10/04 03:31:30;;;;;;;;;;;;;;;10.47;88.83;98097.48;1758481;80;21318;-84
2021/10/04 03:33:55;;;;;;;;;;;;;;;10.43;88.62;98093.72;1785039;79;20206;-83
2021/10/04 03:36:21;;;;;;;;;;;;;;;10.35;88.38;98096.45;1785038;80;20222;-82
2021/10/04 03:38:47;;;;;;;;;;;;;;;10.34;88.55;98102.13;1785159;79;20612;-82
2021/10/04 03:41:13;;;;;;;;;;;;;;;10.31;88.28;98095.91;1785028;80;20167;-82
2021/10/04 03:43:38;;;;;;;;;;;;;;;10.31;88.32;98105.39;1785134;79;21170;-83
2021/10/04 03:46:04;;;;;;;;;;;;;;;10.31;88.44;98103.49;1785015;80;20174;-83
2021/10/04 03:48:30;;;;;;;;;;;;;;;10.27;88.44;98102.44;1785371;79;20222;-83
2021/10/04 03:50:56;;;;;;;;;;;;;;;10.24;88.38;98104.32;1784974;80;20163;-83
2021/10/04 03:53:22;;;;;;;;;;;;;;;10.17;88.59;98113.27;1785486;79;20215;-85
2021/10/04 03:55:48;;;;;;;;;;;;;;;10.05;88.69;98105.42;1785164;80;21077;-82
2021/10/04 03:58:14;;;;;;;;;;;;;;;9.96;88.39;98106.26;1784815;79;20202;-83
2021/10/04 04:00:40;;;;;;;;;;;;;;;9.84;89.62;98116.03;1785025;80;20210;-82
2021/10/04 04:03:05;;;;;;;;;;;;;;;9.81;89.11;98113.30;1757399;79;20159;-82
2021/10/04 04:05:32;;;;;;;;;;;;;;;9.77;89.72;98102.77;1785052;80;20189;-82
2021/10/04 04:07:57;;;;;;;;;;;;;;;9.74;90.69;98106.03;1785237;80;21098;-82
2021/10/04 04:10:23;;;;;;;;;;;;;;;9.76;90.18;98105.20;1785012;79;20171;-82
2021/10/04 04:12:49;;;;;;;;;;;;;;;9.76;90.63;98103.86;1757755;80;20171;-83
2021/10/04 04:15:15;;;;;;;;;;;;;;;9.75;90.25;98101.42;1784618;79;20175;-83
2021/10/04 04:17:41;;;;;;;;;;;;;;;9.67;90.14;98100.63;1754859;80;20258;-82
2021/10/04 04:20:07;;;;;;;;;;;;;;;9.65;89.42;98113.58;1782217;79;21107;-84
2021/10/04 04:22:33;;;;;;;;;;;;;;;9.51;90.53;98108.73;1782460;80;20141;-83
2021/10/04 04:24:59;;;;;;;;;;;;;;;9.44;90.56;98105.48;1731149;80;20178;-83
2021/10/04 04:27:25;;;;;;;;;;;;;;;9.45;91.03;98104.94;1782541;80;20163;-82
2021/10/04 04:29:50;;;;;;;;;;;;;;;9.47;91.91;98100.06;1754783;80;20194;-82
2021/10/04 04:32:16;;;;;;;;;;;;;;;9.51;90.61;98101.97;1782548;80;21837;-82
2021/10/04 04:34:42;;;;;;;;;;;;;;;9.47;91.78;98110.87;1782181;79;20178;-82
2021/10/04 04:37:08;;;;;;;;;;;;;;;9.43;91.69;98109.27;1782644;80;20222;-83
2021/10/04 04:39:34;;;;;;;;;;;;;;;9.33;91.63;98110.08;1782569;79;20155;-83
2021/10/04 04:42:00;;;;;;;;;;;;;;;9.30;92.02;98105.19;1782543;80;20149;-82
2021/10/04 04:44:26;;;;;;;;;;;;;;;9.35;90.99;98106.29;1782434;79;20627;-82
2021/10/04 04:46:51;;;;;;;;;;;;;;;9.40;91.49;98115.23;1782510;80;20206;-83
2021/10/04 04:49:18;;;;;;;;;;;;;;;9.45;91.96;98114.41;1782397;79;20711;-82
2021/10/04 04:51:44;;;;;;;;;;;;;;;9.47;91.97;98113.04;1754568;80;20557;-82
2021/10/04 04:54:09;;;;;;;;;;;;;;;9.50;91.52;98120.64;1782420;79;20154;-83
2021/10/04 04:56:35;;;;;;;;;;;;;;;9.50;91.56;98119.28;1782668;80;21010;-83
2021/10/04 04:59:01;;;;;;;;;;;;;;;9.51;91.05;98128.20;1754908;80;20226;-82
2021/10/04 05:01:27;;;;;;;;;;;;;;;9.46;91.10;98130.36;1782770;80;20163;-82
2021/10/04 05:03:52;;;;;;;;;;;;;;;9.44;90.63;98131.72;1782612;79;20704;-82
2021/10/04 05:06:18;;;;;;;;;;;;;;;9.46;90.89;98135.77;1782308;80;20676;-82
2021/10/04 05:08:44;;;;;;;;;;;;;;;9.44;90.06;98136.58;1782503;79;21158;-83
2021/10/04 05:11:09;;;;;;;;;;;;;;;9.42;90.74;98129.83;1782242;80;20183;-83
2021/10/04 05:13:35;;;;;;;;;;;;;;;9.45;90.55;98130.09;1755414;79;20265;-82
2021/10/04 05:16:01;;;;;;;;;;;;;;;9.47;90.44;98143.34;1782397;80;20167;-82
2021/10/04 05:18:27;;;;;;;;;;;;;;;9.42;90.82;98136.05;1782635;79;20175;-83
2021/10/04 05:20:53;;;;;;;;;;;;;;;9.37;91.59;98143.34;1756167;80;21120;-82
2021/10/04 05:23:18;;;;;;;;;;;;;;;9.31;91.53;98140.64;1782591;80;20182;-83
2021/10/04 05:25:44;;;;;;;;;;;;;;;9.37;90.90;98144.14;1782225;79;20171;-82
2021/10/04 05:28:10;;;;;;;;;;;;;;;9.40;92.08;98137.38;1782345;80;20135;-83
2021/10/04 05:30:35;;;;;;;;;;;;;;;9.39;91.71;98137.92;1782302;79;20155;-82
2021/10/04 05:33:01;;;;;;;;;;;;;;;9.40;90.74;98144.14;1782871;80;21160;-82
2021/10/04 05:35:27;;;;;;;;;;;;;;;9.35;92.09;98143.61;1782203;79;20198;-83
2021/10/04 05:37:53;;;;;;;;;;;;;;;9.35;92.23;98143.61;1782686;80;20186;-83
2021/10/04 05:40:19;;;;;;;;;;;;;;;9.38;91.19;98143.06;1782483;79;20167;-83
2021/10/04 05:42:45;;;;;;;;;;;;;;;9.39;91.78;98146.57;1782523;80;20136;-82
2021/10/04 05:45:12;;;;;;;;;;;;;;;9.44;92.45;98145.24;1782310;79;21860;-81
2021/10/04 05:47:38;;;;;;;;;;;;;;;9.51;92.37;98153.91;1756120;80;20129;-83
2021/10/04 05:50:04;;;;;;;;;;;;;;;9.57;92.13;98145.53;1782835;79;20203;-82
2021/10/04 05:52:30;;;;;;;;;;;;;;;9.62;92.45;98147.41;1783013;80;20141;-83
2021/10/04 05:54:56;;;;;;;;;;;;;;;9.64;91.60;98153.36;1756126;80;20155;-82
2021/10/04 05:57:22;;;;;;;;;;;;;;;9.70;91.79;98153.64;1782620;80;21048;-82
2021/10/04 05:59:47;;;;;;;;;;;;;;;9.76;93.06;98147.16;1782348;79;20397;-83
2021/10/04 06:02:13;;;;;;;;;;;;;;;9.81;93.15;98144.42;1782624;80;20187;-82
2021/10/04 06:04:39;;;;;;;;;;;;;;;9.93;92.82;98149.58;1754601;80;21343;-82
2021/10/04 06:07:05;;;;;;;;;;;;;;;10.06;92.63;98148.20;1782532;80;20195;-83
2021/10/04 06:09:31;;;;;;;;;;;;;;;10.21;91.67;98148.72;1782447;79;21723;-84
2021/10/04 06:11:57;;;;;;;;;;;;;;;10.30;93.11;98142.50;1782418;80;20250;-82
2021/10/04 06:14:23;;;;;;;;;;;;;;;10.40;92.42;98149.78;1782413;79;20218;-83
2021/10/04 06:16:49;;;;;;;;;;;;;;;10.56;91.73;98144.59;1754927;80;20141;-83
2021/10/04 06:19:15;;;;;;;;;;;;;;;10.72;91.32;98149.41;1782342;79;20147;-82
2021/10/04 06:21:40;;;;;;;;;;;;;;;10.84;91.87;98147.18;1782028;80;21021;-83
2021/10/04 06:24:06;;;;;;;;;;;;;;;11.00;91.86;98149.28;1781917;79;20300;-82
2021/10/04 06:26:32;;;;;;;;;;;;;;;11.16;91.52;98145.40;1781715;80;20687;-83
2021/10/04 06:28:58;;;;;;;;;;;;;;;11.35;91.29;98150.16;1781730;79;20672;-83
2021/10/04 06:31:25;;;;;;;;;;;;;;;11.48;90.97;98143.57;1781835;80;20211;-82
2021/10/04 06:33:51;;;;;;;;;;;;;;;11.56;90.51;98153.02;1752587;79;21220;-82
2021/10/04 06:36:17;;;;;;;;;;;;;;;11.58;89.92;98157.06;1728696;80;20178;-82
2021/10/04 06:38:43;;;;;;;;;;;;;;;11.65;90.15;98150.52;1782097;80;20706;-83
2021/10/04 06:41:09;;;;;;;;;;;;;;;11.72;90.05;98158.59;1781603;79;20125;-83
2021/10/04 06:43:35;;;;;;;;;;;;;;;11.87;89.79;98160.39;1781997;80;20163;-82
2021/10/04 06:46:00;;;;;;;;;;;;;;;12.04;89.78;98158.61;1781980;79;21065;-83
2021/10/04 06:48:26;;;;;;;;;;;;;;;12.19;89.59;98161.74;1782065;80;20253;-83
2021/10/04 06:50:53;;;;;;;;;;;;;;;12.39;89.65;98155.57;1781781;79;20339;-82
2021/10/04 06:53:19;;;;;;;;;;;;;;;12.62;89.22;98163.45;1782046;80;20433;-82
2021/10/04 06:55:45;;;;;;;;;;;;;;;12.83;88.93;98153.72;1781631;79;20141;-82
2021/10/04 06:58:12;;;;;;;;;;;;;;;13.01;88.88;98162.45;1782254;80;21135;-83
2021/10/04 07:00:37;;;;;;;;;;;;;;;13.28;88.44;98163.77;1781594;79;20157;-82
2021/10/04 07:03:03;;;;;;;;;;;;;;;14.31;87.09;98155.83;1782218;80;20194;-83
2021/10/04 07:05:29;;;;;;;;;;;;;;;15.31;85.20;98163.42;1781791;79;20207;-83
2021/10/04 07:07:56;;;;;;;;;;;;;;;16.25;80.50;98166.09;1781933;80;20432;-83
2021/10/04 07:10:25;;;;;;;;;;;;;;;17.25;84.07;98172.36;1781638;79;21111;-83
2021/10/04 07:12:51;;;;;;;;;;;;;;;18.03;77.01;98165.56;1781774;80;20192;-83
2021/10/04 07:15:17;;;;;;;;;;;;;;;18.85;80.46;98162.21;1781715;79;20137;-84
2021/10/04 07:17:43;;;;;;;;;;;;;;;19.68;80.42;98167.05;1781691;80;20162;-83
2021/10/04 07:20:09;;;;;;;;;;;;;;;20.15;75.96;98165.41;1782184;79;20159;-83
2021/10/04 07:22:35;;;;;;;;;;;;;;;20.78;73.43;98170.19;1781878;80;21726;-83
2021/10/04 07:25:03;;;;;;;;;;;;;;;21.52;74.83;98169.00;1781689;79;20155;-84
2021/10/04 07:27:28;;;;;;;;;;;;;;;21.98;71.53;98166.81;1782455;80;20168;-84
2021/10/04 07:29:54;;;;;;;;;;;;;;;22.53;69.23;98165.97;1781832;79;20175;-84
2021/10/04 07:32:20;;;;;;;;;;;;;;;22.93;70.04;98167.00;1782136;80;20278;-84
2021/10/04 07:34:46;;;;;;;;;;;;;;;23.39;67.65;98170.85;1781819;79;21749;-83
2021/10/04 07:37:12;;;;;;;;;;;;;;;23.63;65.55;98164.31;1752347;80;20269;-84
2021/10/04 07:39:37;;;;;;;;;;;;;;;23.86;66.25;98165.20;1781855;79;20222;-83
2021/10/04 07:42:03;;;;;;;;;;;;;;;24.18;62.14;98165.86;1753501;80;20211;-84
2021/10/04 07:44:29;;;;;;;;;;;;;;;24.49;61.45;98164.08;1781838;79;20238;-84
2021/10/04 07:46:57;;;;;;;;;;;;;;;24.93;62.37;98164.44;1781930;80;21037;-83
2021/10/04 07:49:23;;;;;;;;;;;;;;;25.23;58.44;98163.77;1781877;79;20186;-85
2021/10/04 07:51:49;;;;;;;;;;;;;;;25.87;52.20;98168.25;1781957;80;20128;-83
2021/10/04 07:54:15;;;;;;;;;;;;;;;26.42;57.20;98162.18;1782080;79;20155;-84
2021/10/04 07:56:42;;;;;;;;;;;;;;;26.95;57.21;98157.70;1782051;80;20159;-83
2021/10/04 07:59:08;;;;;;;;;;;;;;;27.17;53.58;98157.29;1781964;80;21042;-85
2021/10/04 08:01:34;;;;;;;;;;;;;;;27.93;53.39;98151.00;1781458;79;20161;-85
2021/10/04 08:04:00;;;;;;;;;;;;;;;28.87;51.11;98157.81;1753575;80;20188;-85
2021/10/04 08:06:26;;;;;;;;;;;;;;;29.80;55.01;98153.55;1781561;79;20143;-83
2021/10/04 08:08:53;;;;;;;;;;;;;;;30.07;51.24;98153.23;1782145;80;20187;-84
2021/10/04 08:11:19;;;;;;;;;;;;;;;29.91;50.51;98143.95;1781578;79;21107;-83
2021/10/04 08:13:45;;;;;;;;;;;;;;;29.69;44.14;98145.22;1781957;80;20230;-85
2021/10/04 08:16:12;;;;;;;;;;;;;;;30.31;46.35;98147.36;1781899;79;20193;-84
2021/10/04 08:18:38;;;;;;;;;;;;;;;31.05;43.52;98144.66;1785312;80;20136;-85
2021/10/04 08:21:04;;;;;;;;;;;;;;;31.30;43.25;98145.07;1785017;79;20282;-83
2021/10/04 08:23:30;;;;;;;;;;;;;;;32.20;40.37;98140.03;1785192;80;21939;-86
2021/10/04 08:25:56;;;;;;;;;;;;;;;32.95;40.58;98142.58;1785277;79;20214;-85
2021/10/04 08:28:21;;;;;;;;;;;;;;;33.09;37.77;98138.13;1785518;80;20706;-84
2021/10/04 08:30:47;;;;;;;;;;;;;;;33.67;36.64;98130.86;1785158;79;20167;-85
2021/10/04 08:33:14;;;;;;;;;;;;;;;33.91;39.83;98135.84;1785356;80;20207;-84
2021/10/04 08:35:40;;;;;;;;;;;;;;;34.04;36.68;98138.80;1785564;79;21038;-83
2021/10/04 08:38:05;;;;;;;;;;;;;;;34.62;35.49;98141.95;1758934;80;20131;-86
2021/10/04 08:40:31;;;;;;;;;;;;;;;34.96;26.76;98142.97;1785660;79;20190;-86
2021/10/04 08:42:57;;;;;;;;;;;;;;;35.81;33.96;98140.72;1785314;80;20359;-85
2021/10/04 08:45:27;;;;;;;;;;;;;;;35.33;32.08;98128.31;1757445;80;20135;-86
2021/10/04 08:48:00;;;;;;;;;;;;;;;33.08;35.10;98128.13;1785784;80;21156;-84
2021/10/04 08:50:28;;;;;;;;;;;;;;;31.54;41.68;98125.03;1758814;80;20128;-84
2021/10/04 08:52:54;;;;;;;;;;;;;;;29.57;40.11;98120.51;1785841;80;20096;-83
2021/10/04 08:55:21;;;;;;;;;;;;;;;28.30;38.32;98125.70;1758702;80;20124;-86
2021/10/04 08:57:48;;;;;;;;;;;;;;;27.35;42.22;98128.23;1758896;80;20132;-84
2021/10/04 09:00:14;;;;;;;;;;;;;;;26.68;44.94;98132.06;1758956;80;21120;-84
2021/10/04 09:02:40;;;;;;;;;;;;;;;26.03;45.66;98129.77;1784907;80;20125;-84
2021/10/04 09:05:21;;;;;;;;;;;;;;;25.18;42.93;98135.75;1785394;79;20214;-84
2021/10/04 09:07:47;;;;;;;;;;;;;;;23.91;44.22;98128.92;1784750;80;20164;-84
2021/10/04 09:10:15;;;;;;;;;;;;;;;23.80;46.68;98127.92;1785253;79;20161;-86
2021/10/04 09:12:45;;;;;;;;;;;;;;;23.49;47.61;98126.63;1785265;80;21046;-86
2021/10/04 09:15:22;;;;;;;;;;;;;;;23.14;48.03;98119.72;1784038;79;20133;-83
2021/10/04 09:17:49;;;;;;;;;;;;;;;22.64;49.24;98123.44;1780124;80;20223;-83
2021/10/04 09:20:16;;;;;;;;;;;;;;;22.42;50.32;98123.48;1781983;79;20432;-86
2021/10/04 09:22:42;;;;;;;;;;;;;;;22.33;50.86;98125.63;1782146;80;20199;-83
2021/10/04 09:25:08;;;;;;;;;;;;;;;22.11;52.26;98125.61;1782040;79;21082;-83
2021/10/04 09:27:38;;;;;;;;;;;;;;;22.05;51.62;98128.94;1753629;80;20222;-86
2021/10/04 09:30:10;;;;;;;;;;;;;;;21.94;49.39;98130.03;1781830;79;20141;-83
2021/10/04 09:32:42;;;;;;;;;;;;;;;21.97;49.06;98123.83;1781689;80;20416;-83
2021/10/04 09:35:29;;;;;;;;;;;;;;;22.06;48.73;98125.86;1781861;79;20144;-86
2021/10/04 09:38:02;;;;;;;;;;;;;;;22.14;47.09;98125.51;1782002;80;21281;-83
2021/10/04 09:40:39;;;;;;;;;;;;;;;22.12;48.79;98125.83;1781879;79;20243;-86
2021/10/04 09:43:25;;;;;;;;;;;;;;;22.15;48.77;98121.01;1782376;80;20239;-83
2021/10/04 09:46:03;;;;;;;;;;;;;;;22.16;48.12;98125.95;1780966;79;20188;-83
2021/10/04 09:48:28;;;;;;;;;;;;;;;22.18;47.93;98120.88;1782108;80;20144;-83
2021/10/04 09:50:54;;;;;;;;;;;;;;;22.24;48.51;98120.84;1781784;79;21072;-86
2021/10/04 09:53:20;;;;;;;;;;;;;;;22.25;48.39;98121.06;1781953;80;20223;-83
2021/10/04 09:55:47;;;;;;;;;;;;;;;22.28;47.99;98120.92;1781772;79;20187;-85
2021/10/04 09:58:20;;;;;;;;;;;;;;;22.24;48.00;98120.84;1782128;80;20157;-86
2021/10/04 10:00:52;;;;;;;;;;;;;;;22.30;48.21;98113.89;1781750;79;20161;-86
2021/10/04 10:03:19;;;;;;;;;;;;;;;22.37;48.22;98117.42;1782020;80;21043;-83
2021/10/04 10:05:47;;;;;;;;;;;;;;;22.48;46.69;98113.00;1781815;79;20136;-86
2021/10/04 10:08:13;;;;;;;;;;;;;;;22.55;46.62;98113.73;1781492;80;20404;-86
2021/10/04 10:10:41;;;;;;;;;;;;;;;22.64;47.05;98109.63;1781698;79;20133;-83
2021/10/04 10:13:07;;;;;;;;;;;;;;;22.59;48.10;98105.77;1781952;80;20165;-86
2021/10/04 10:15:33;;;;;;;;;;;;;;;22.51;48.24;98110.31;1781771;79;21166;-86
2021/10/04 10:18:11;;;;;;;;;;;;;;;22.55;47.76;98115.91;1783343;80;20197;-84
2021/10/04 10:20:37;;;;;;;;;;;;;;;22.69;46.94;98115.48;1757359;80;20156;-85
2021/10/04 10:23:03;;;;;;;;;;;;;;;22.70;47.05;98117.87;1785441;80;20163;-85
2021/10/04 10:25:34;;;;;;;;;;;;;;;22.67;47.88;98115.04;1785161;79;20139;-83
2021/10/04 10:28:00;;;;;;;;;;;;;;;22.62;48.59;98111.95;1785247;80;21814;-84
2021/10/04 10:30:27;;;;;;;;;;;;;;;22.57;48.87;98117.77;1785003;79;20144;-85
2021/10/04 10:32:54;;;;;;;;;;;;;;;22.58;47.30;98115.80;1785244;80;20136;-85
2021/10/04 10:35:46;;;;;;;;;;;;;;;22.63;47.24;98118.27;1784906;79;20105;-85
2021/10/04 10:38:12;;;;;;;;;;;;;;;22.73;47.17;98106.13;1785344;80;20433;-84
2021/10/04 10:40:38;;;;;;;;;;;;;;;22.86;47.01;98110.99;1758634;80;21134;-83
2021/10/04 10:43:06;;;;;;;;;;;;;;;22.96;47.01;98104.91;1785309;80;20202;-84
2021/10/04 10:45:47;;;;;;;;;;;;;;;23.00;46.72;98105.81;1785109;79;20132;-84
2021/10/04 10:48:13;;;;;;;;;;;;;;;23.01;47.16;98105.23;1759140;80;20400;-85
2021/10/04 10:50:40;;;;;;;;;;;;;;;22.95;47.10;98104.70;1757407;80;20521;-85
2021/10/04 10:53:13;;;;;;;;;;;;;;;22.91;47.53;98108.55;1757737;80;21101;-86
2021/10/04 10:55:53;;;;;;;;;;;;;;;22.95;47.06;98109.42;1785024;79;20138;-86
2021/10/04 10:58:21;;;;;;;;;;;;;;;22.97;47.46;98107.09;1758823;80;20432;-85
2021/10/04 11:01:15;;;;;;;;;;;;;;;22.99;47.70;98105.59;1784958;79;20121;-85
2021/10/04 11:03:47;;;;;;;;;;;;;;;23.06;46.87;98111.27;1785622;80;20206;-86
2021/10/04 11:06:13;;;;;;;;;;;;;;;23.06;47.39;98109.88;1784439;79;21110;-84
2021/10/04 11:08:50;;;;;;;;;;;;;;;23.03;47.84;98102.32;1757505;80;20273;-85
2021/10/04 11:11:17;;;;;;;;;;;;;;;23.00;48.64;98113.30;1758810;80;20140;-84
2021/10/04 11:13:58;;;;;;;;;;;;;;;22.96;47.32;98111.02;1785347;80;20356;-84
2021/10/04 11:16:28;;;;;;;;;;;;;;;22.92;47.35;98106.81;1784979;79;20137;-86
2021/10/04 11:18:54;;;;;;;;;;;;;;;22.90;47.85;98113.83;1782456;80;21634;-84
2021/10/04 11:21:22;;;;;;;;;;;;;;;22.90;48.03;98109.13;1781786;79;20173;-84
2021/10/04 11:23:53;;;;;;;;;;;;;;;22.91;47.68;98096.92;1728322;80;20145;-85
2021/10/04 11:26:22;;;;;;;;;;;;;;;22.95;46.63;98106.08;1781755;79;20145;-85
2021/10/04 11:28:51;;;;;;;;;;;;;;;22.96;47.15;98108.26;1781891;80;20169;-85
2021/10/04 11:31:19;;;;;;;;;;;;;;;22.92;47.84;98108.19;1781704;79;21692;-86
2021/10/04 11:34:03;;;;;;;;;;;;;;;22.91;47.35;98100.27;1777885;80;20420;-86
2021/10/04 11:36:34;;;;;;;;;;;;;;;22.89;46.60;98101.18;1781742;79;20137;-84
2021/10/04 11:39:03;;;;;;;;;;;;;;;22.86;47.33;98097.18;1753488;80;20144;-84
2021/10/04 11:41:33;;;;;;;;;;;;;;;22.88;47.09;98089.33;1781551;79;20413;-84
2021/10/04 11:44:01;;;;;;;;;;;;;;;22.91;47.61;98090.59;1782201;80;21137;-85
2021/10/04 11:46:36;;;;;;;;;;;;;;;22.92;47.36;98093.58;1781568;79;20401;-84
2021/10/04 11:49:11;;;;;;;;;;;;;;;23.02;46.48;98094.40;1781764;80;20231;-84
2021/10/04 11:51:48;;;;;;;;;;;;;;;23.03;47.40;98091.85;1782030;79;20133;-83
2021/10/04 11:54:16;;;;;;;;;;;;;;;23.06;46.76;98093.30;1781977;80;20141;-84
2021/10/04 11:56:42;;;;;;;;;;;;;;;23.08;46.89;98090.20;1777336;79;21293;-84
2021/10/04 11:59:08;;;;;;;;;;;;;;;23.12;45.89;98093.03;1782014;80;20194;-83
2021/10/04 12:01:38;;;;;;;;;;;;;;;23.11;45.85;98087.29;1781553;79;20270;-84
2021/10/04 12:04:06;;;;;;;;;;;;;;;23.16;45.37;98093.35;1782528;80;20141;-85
2021/10/04 12:06:32;;;;;;;;;;;;;;;23.16;45.52;98089.75;1753655;80;20195;-84
2021/10/04 12:08:58;;;;;;;;;;;;;;;23.18;45.61;98088.25;1782043;80;21038;-83
2021/10/04 12:11:24;;;;;;;;;;;;;;;23.19;45.72;98087.67;1781595;79;20226;-85
2021/10/04 12:13:50;;;;;;;;;;;;;;;23.17;45.74;98084.48;1753567;80;20216;-84
2021/10/04 12:16:17;;;;;;;;;;;;;;;23.15;45.94;98080.67;1781472;79;20140;-86
2021/10/04 12:18:49;;;;;;;;;;;;;;;23.22;45.89;98075.30;1783680;80;20137;-84
2021/10/04 12:21:31;;;;;;;;;;;;;;;23.25;46.42;98080.70;1783253;79;20815;-85
2021/10/04 12:24:09;;;;;;;;;;;;;;;23.24;46.53;98082.64;1785140;80;20151;-84
2021/10/04 12:27:01;;;;;;;;;;;;;;;23.25;46.60;98075.18;1757048;80;20183;-84
2021/10/04 12:29:32;;;;;;;;;;;;;;;23.23;46.01;98077.48;1784939;80;20440;-84
2021/10/04 12:32:16;;;;;;;;;;;;;;;23.22;46.15;98073.92;1784953;79;20144;-84
2021/10/04 12:35:00;;;;;;;;;;;;;;;23.22;46.04;98075.88;1784770;80;21238;-84
2021/10/04 12:37:27;;;;;;;;;;;;;;;23.24;45.59;98071.59;1776868;79;20157;-85
2021/10/04 12:39:53;;;;;;;;;;;;;;;23.26;49.08;98076.20;1758791;80;20168;-85
2021/10/04 12:42:23;;;;;;;;;;;;;;;22.88;51.85;98069.99;1785113;79;20253;-83
2021/10/04 12:44:47;;;;;;;;;;;;;;;22.87;51.07;98080.03;1784519;80;20128;-84
2021/10/04 12:47:13;;;;;;;;;;;;;;;22.81;52.00;98077.49;1784908;79;21073;-85
2021/10/04 12:49:56;;;;;;;;;;;;;;;22.77;51.47;98073.86;1785092;80;20125;-84
2021/10/04 12:52:27;;;;;;;;;;;;;;;22.68;53.22;98075.21;1785594;79;20223;-83